Time;durP1;ratioP1;P1;durP2;ratioP2;P2;SDS_P1;SDS_P2;PMS_P1;PMS_P2;Temp;Humidity;BMP_temperature;BMP_pressure;BME280_temperature;BME280_humidity;BME280_pressure;Samples;Min_cycle;Max_cycle;Signal;HPM_P1;HPM_P2
2023/10/03 00:01:17;;;;;;;4.05;3.03;;;;;;;;;;5001002;28;60196;-70
2023/10/03 00:03:43;;;;;;;3.93;3.20;;;;;;;;;;5001210;28;58553;-70
2023/10/03 00:06:09;;;;;;;6.50;3.67;;;;;;;;;;5002796;28;58473;-70
2023/10/03 00:08:34;;;;;;;4.72;3.05;;;;;;;;;;5001334;28;58914;-70
2023/10/03 00:10:59;;;;;;;5.60;3.47;;;;;;;;;;5000250;28;59663;-70
2023/10/03 00:13:25;;;;;;;4.57;3.53;;;;;;;;;;5000483;28;58429;-70
2023/10/03 00:15:50;;;;;;;3.60;3.25;;;;;;;;;;4999514;28;58470;-70
2023/10/03 00:18:16;;;;;;;3.37;3.03;;;;;;;;;;5003418;28;59318;-70
2023/10/03 00:20:41;;;;;;;4.53;3.70;;;;;;;;;;5007369;28;59318;-70
2023/10/03 00:23:06;;;;;;;3.42;2.72;;;;;;;;;;5010165;28;60227;-71
2023/10/03 00:25:32;;;;;;;3.57;3.27;;;;;;;;;;5006748;28;60334;-70
2023/10/03 00:28:00;;;;;;;4.25;3.55;;;;;;;;;;5006725;28;59219;-70
2023/10/03 00:30:28;;;;;;;3.78;2.80;;;;;;;;;;5007817;28;58478;-69
2023/10/03 00:32:54;;;;;;;3.45;3.00;;;;;;;;;;5005647;28;59116;-70
2023/10/03 00:35:20;;;;;;;4.43;3.47;;;;;;;;;;5008384;28;58542;-70
2023/10/03 00:37:46;;;;;;;3.67;3.03;;;;;;;;;;5007203;28;59770;-70
2023/10/03 00:40:27;;;;;;;3.92;3.05;;;;;;;;;;5006983;28;58967;-71
2023/10/03 00:42:54;;;;;;;4.45;2.95;;;;;;;;;;5010870;28;58519;-68
2023/10/03 00:45:21;;;;;;;4.03;3.28;;;;;;;;;;5006287;28;60980;-69
2023/10/03 00:47:50;;;;;;;4.13;2.63;;;;;;;;;;5007282;28;59813;-68
2023/10/03 00:50:19;;;;;;;4.10;3.38;;;;;;;;;;5009649;28;58409;-68
2023/10/03 00:52:45;;;;;;;2.80;2.40;;;;;;;;;;5008465;28;59354;-68
2023/10/03 00:55:11;;;;;;;3.40;2.53;;;;;;;;;;5009371;28;58723;-68
2023/10/03 00:57:37;;;;;;;5.40;3.22;;;;;;;;;;5006880;28;59860;-68
2023/10/03 01:00:06;;;;;;;3.58;2.90;;;;;;;;;;5008851;28;58848;-68
2023/10/03 01:02:31;;;;;;;4.20;3.10;;;;;;;;;;5006982;28;58433;-67
2023/10/03 01:04:57;;;;;;;3.63;2.63;;;;;;;;;;5008630;28;60261;-68
2023/10/03 01:07:23;;;;;;;4.65;3.10;;;;;;;;;;5004320;28;58787;-67
2023/10/03 01:09:48;;;;;;;4.70;2.75;;;;;;;;;;5007425;28;58449;-68
2023/10/03 01:12:16;;;;;;;3.37;2.90;;;;;;;;;;5009212;28;58525;-68
2023/10/03 01:14:42;;;;;;;3.75;3.05;;;;;;;;;;5008701;28;58932;-68
2023/10/03 01:17:07;;;;;;;3.20;2.30;;;;;;;;;;5006207;28;60231;-68
2023/10/03 01:19:32;;;;;;;4.07;2.87;;;;;;;;;;5007948;28;59186;-68
2023/10/03 01:21:58;;;;;;;5.15;2.67;;;;;;;;;;5009150;28;58472;-68
2023/10/03 01:24:27;;;;;;;3.78;2.67;;;;;;;;;;5009665;28;60175;-68
2023/10/03 01:26:54;;;;;;;3.25;2.70;;;;;;;;;;5004420;28;58664;-68
2023/10/03 01:29:20;;;;;;;5.00;2.85;;;;;;;;;;5006612;28;58483;-68
2023/10/03 01:31:48;;;;;;;4.82;2.25;;;;;;;;;;5004833;28;59320;-68
2023/10/03 01:34:13;;;;;;;4.20;3.35;;;;;;;;;;5002669;28;59634;-66
2023/10/03 01:36:40;;;;;;;5.00;3.67;;;;;;;;;;5004753;28;58496;-68
2023/10/03 01:39:06;;;;;;;3.13;2.47;;;;;;;;;;5005505;28;58956;-66
2023/10/03 01:41:31;;;;;;;3.30;2.67;;;;;;;;;;5004222;28;58365;-66
2023/10/03 01:43:56;;;;;;;3.97;2.87;;;;;;;;;;5005601;28;59294;-66
2023/10/03 01:46:22;;;;;;;3.72;2.78;;;;;;;;;;5004070;28;58772;-66
2023/10/03 01:48:47;;;;;;;3.70;2.30;;;;;;;;;;5004805;28;58797;-66
2023/10/03 01:51:12;;;;;;;3.28;2.53;;;;;;;;;;5005120;28;60200;-66
2023/10/03 01:53:39;;;;;;;3.93;2.67;;;;;;;;;;5002630;28;58811;-72
2023/10/03 01:56:05;;;;;;;4.77;3.33;;;;;;;;;;5006022;28;58518;-68
2023/10/03 01:58:32;;;;;;;3.53;2.85;;;;;;;;;;5003284;28;59908;-68
2023/10/03 02:00:57;;;;;;;3.88;2.67;;;;;;;;;;5004670;28;58367;-68
2023/10/03 02:03:23;;;;;;;2.47;2.28;;;;;;;;;;5004448;28;59134;-68
2023/10/03 02:05:49;;;;;;;3.20;2.72;;;;;;;;;;5004983;28;60219;-67
2023/10/03 02:08:17;;;;;;;3.03;2.73;;;;;;;;;;5002544;28;58423;-68
2023/10/03 02:10:52;;;;;;;3.05;2.60;;;;;;;;;;5002087;28;60114;-68
2023/10/03 02:13:17;;;;;;;4.30;3.28;;;;;;;;;;5001314;28;59144;-68
2023/10/03 02:15:44;;;;;;;3.70;2.33;;;;;;;;;;5004396;28;58487;-68
2023/10/03 02:18:09;;;;;;;3.63;2.35;;;;;;;;;;5004994;28;60349;-68
2023/10/03 02:20:46;;;;;;;4.10;2.50;;;;;;;;;;5003151;28;58509;-68
2023/10/03 02:23:17;;;;;;;4.55;2.80;;;;;;;;;;5002336;28;60351;-68
2023/10/03 02:25:43;;;;;;;3.50;2.45;;;;;;;;;;5003573;28;60121;-67
2023/10/03 02:28:08;;;;;;;3.83;2.20;;;;;;;;;;5003149;28;58434;-68
2023/10/03 02:30:34;;;;;;;2.97;2.53;;;;;;;;;;5004620;28;58952;-68
2023/10/03 02:33:09;;;;;;;3.85;2.72;;;;;;;;;;5004880;28;58936;-68
2023/10/03 02:35:35;;;;;;;3.67;2.70;;;;;;;;;;5002392;28;58386;-68
2023/10/03 02:38:03;;;;;;;3.45;2.88;;;;;;;;;;5003977;28;58697;-67
2023/10/03 02:40:29;;;;;;;4.22;2.92;;;;;;;;;;5002753;28;58523;-67
2023/10/03 02:42:55;;;;;;;3.33;2.53;;;;;;;;;;5003561;28;60488;-68
2023/10/03 02:45:23;;;;;;;4.55;2.65;;;;;;;;;;5002728;28;59659;-68
2023/10/03 02:47:55;;;;;;;4.55;2.47;;;;;;;;;;5002280;28;58552;-68
2023/10/03 02:50:20;;;;;;;4.35;3.35;;;;;;;;;;5002029;28;60374;-68
2023/10/03 02:52:46;;;;;;;3.40;2.20;;;;;;;;;;5002695;28;58887;-68
2023/10/03 02:55:15;;;;;;;3.83;2.50;;;;;;;;;;5004505;28;58461;-68
2023/10/03 02:57:40;;;;;;;2.80;1.80;;;;;;;;;;5000815;28;60197;-68
2023/10/03 03:00:12;;;;;;;2.83;2.40;;;;;;;;;;5002817;28;59041;-69
2023/10/03 03:02:37;;;;;;;4.43;2.88;;;;;;;;;;5002709;28;58583;-68
2023/10/03 03:05:04;;;;;;;2.45;2.08;;;;;;;;;;5003047;28;58816;-67
2023/10/03 03:07:29;;;;;;;4.97;2.88;;;;;;;;;;5002415;28;58389;-68
2023/10/03 03:09:59;;;;;;;2.67;2.10;;;;;;;;;;5004208;28;60325;-68
2023/10/03 03:12:24;;;;;;;3.58;2.58;;;;;;;;;;5003880;28;59830;-68
2023/10/03 03:14:49;;;;;;;3.93;2.77;;;;;;;;;;5004061;28;58394;-68
2023/10/03 03:17:14;;;;;;;3.90;2.67;;;;;;;;;;5000182;28;60125;-68
2023/10/03 03:19:40;;;;;;;3.70;2.20;;;;;;;;;;5002665;28;59223;-68
2023/10/03 03:22:05;;;;;;;3.47;2.85;;;;;;;;;;5002439;28;58344;-67
2023/10/03 03:24:34;;;;;;;3.63;2.87;;;;;;;;;;5004668;28;59198;-67
2023/10/03 03:26:59;;;;;;;4.35;2.95;;;;;;;;;;5000535;28;58452;-68
2023/10/03 03:29:35;;;;;;;4.05;2.50;;;;;;;;;;5004160;28;59143;-68
2023/10/03 03:32:00;;;;;;;6.28;3.20;;;;;;;;;;5000166;28;59860;-67
2023/10/03 03:34:25;;;;;;;2.30;1.93;;;;;;;;;;5002900;28;58485;-68
2023/10/03 03:36:54;;;;;;;4.57;2.97;;;;;;;;;;5001115;28;59184;-68
2023/10/03 03:39:20;;;;;;;3.10;2.42;;;;;;;;;;5001646;28;59581;-68
2023/10/03 03:41:46;;;;;;;4.55;3.05;;;;;;;;;;5003733;28;58427;-68
2023/10/03 03:44:12;;;;;;;3.53;2.60;;;;;;;;;;5002765;28;60439;-68
2023/10/03 03:46:41;;;;;;;3.22;2.90;;;;;;;;;;4998997;28;59900;-67
2023/10/03 03:49:08;;;;;;;4.22;3.40;;;;;;;;;;5001908;28;60594;-68
2023/10/03 03:51:33;;;;;;;4.03;2.40;;;;;;;;;;5000719;28;59241;-68
2023/10/03 03:54:00;;;;;;;3.60;2.63;;;;;;;;;;5003979;28;58295;-68
2023/10/03 03:56:25;;;;;;;3.75;2.85;;;;;;;;;;5001781;28;58775;-68
2023/10/03 03:58:50;;;;;;;4.97;3.10;;;;;;;;;;5002144;28;58415;-68
2023/10/03 04:01:19;;;;;;;4.45;3.50;;;;;;;;;;5000809;28;58308;-68
2023/10/03 04:03:51;;;;;;;2.97;2.28;;;;;;;;;;5000536;28;60062;-68
2023/10/03 04:06:17;;;;;;;4.00;3.03;;;;;;;;;;4999534;28;59881;-68
2023/10/03 04:08:42;;;;;;;2.80;2.42;;;;;;;;;;5003226;28;60108;-68
2023/10/03 04:11:08;;;;;;;3.10;2.60;;;;;;;;;;5003018;28;59793;-68
2023/10/03 04:13:38;;;;;;;3.42;2.88;;;;;;;;;;5003475;28;58441;-68
2023/10/03 04:16:06;;;;;;;4.85;2.97;;;;;;;;;;4997027;28;60530;-68
2023/10/03 04:18:31;;;;;;;5.60;3.50;;;;;;;;;;5002029;28;59911;-68
2023/10/03 04:20:56;;;;;;;3.50;2.67;;;;;;;;;;5001471;28;58499;-68
2023/10/03 04:23:21;;;;;;;3.33;2.58;;;;;;;;;;5003644;28;59169;-68
2023/10/03 04:25:47;;;;;;;4.97;3.20;;;;;;;;;;5001359;28;58734;-67
2023/10/03 04:28:16;;;;;;;4.90;3.33;;;;;;;;;;5002945;28;58548;-68
2023/10/03 04:30:41;;;;;;;4.78;3.83;;;;;;;;;;4999104;28;59079;-68
2023/10/03 04:33:07;;;;;;;3.40;2.70;;;;;;;;;;5003920;28;58665;-68
2023/10/03 04:35:32;;;;;;;2.53;2.22;;;;;;;;;;5002262;28;59779;-68
2023/10/03 04:37:57;;;;;;;4.73;2.60;;;;;;;;;;5000222;28;58433;-67
2023/10/03 04:40:36;;;;;;;4.30;3.25;;;;;;;;;;5002722;28;58414;-67
2023/10/03 04:43:10;;;;;;;3.95;2.95;;;;;;;;;;5000972;28;64261;-67
2023/10/03 04:45:36;;;;;;;4.47;2.72;;;;;;;;;;4999446;28;59369;-67
2023/10/03 04:48:02;;;;;;;4.30;2.88;;;;;;;;;;5002756;28;58390;-70
2023/10/03 04:50:27;;;;;;;5.55;4.00;;;;;;;;;;5002053;28;58847;-69
2023/10/03 04:52:53;;;;;;;3.50;2.67;;;;;;;;;;5000006;28;58508;-69
2023/10/03 04:55:18;;;;;;;3.87;3.00;;;;;;;;;;5000955;28;60427;-70
2023/10/03 04:57:44;;;;;;;4.65;3.60;;;;;;;;;;5000596;28;60376;-70
2023/10/03 05:00:11;;;;;;;5.38;3.20;;;;;;;;;;5001124;28;58447;-69
2023/10/03 05:02:36;;;;;;;4.15;2.72;;;;;;;;;;4997979;28;59558;-70
2023/10/03 05:05:01;;;;;;;4.20;3.55;;;;;;;;;;4982692;28;58534;-70
2023/10/03 05:07:28;;;;;;;4.13;3.33;;;;;;;;;;4991936;28;58437;-68
2023/10/03 05:09:54;;;;;;;6.33;3.83;;;;;;;;;;5003832;28;60306;-68
2023/10/03 05:12:20;;;;;;;4.82;2.88;;;;;;;;;;5003680;28;58538;-70
2023/10/03 05:14:46;;;;;;;5.38;3.78;;;;;;;;;;5005179;28;60460;-68
2023/10/03 05:17:12;;;;;;;5.47;3.63;;;;;;;;;;5003059;28;58940;-67
2023/10/03 05:19:37;;;;;;;4.75;2.92;;;;;;;;;;5004175;28;58536;-67
2023/10/03 05:22:03;;;;;;;6.00;3.57;;;;;;;;;;5005210;28;59408;-67
2023/10/03 05:24:30;;;;;;;3.83;3.10;;;;;;;;;;5004465;28;59846;-66
2023/10/03 05:26:55;;;;;;;3.88;2.70;;;;;;;;;;5003955;28;58457;-65
2023/10/03 05:29:21;;;;;;;5.57;3.17;;;;;;;;;;5002707;28;59675;-65
2023/10/03 05:31:48;;;;;;;3.65;2.78;;;;;;;;;;4992334;28;59967;-66
2023/10/03 05:34:15;;;;;;;4.75;3.45;;;;;;;;;;4989644;28;58520;-65
2023/10/03 05:36:40;;;;;;;4.37;3.03;;;;;;;;;;4999983;28;59317;-66
2023/10/03 05:39:07;;;;;;;5.20;3.03;;;;;;;;;;4992940;28;58532;-66
2023/10/03 05:41:32;;;;;;;5.50;3.35;;;;;;;;;;5001211;28;60247;-65
2023/10/03 05:43:57;;;;;;;4.83;3.10;;;;;;;;;;5003978;28;58531;-66
2023/10/03 05:46:22;;;;;;;4.22;2.97;;;;;;;;;;5001292;28;58649;-65
2023/10/03 05:48:47;;;;;;;5.27;2.80;;;;;;;;;;5003874;28;59689;-66
2023/10/03 05:51:12;;;;;;;5.18;4.07;;;;;;;;;;5000904;28;59085;-65
2023/10/03 05:53:41;;;;;;;5.55;3.25;;;;;;;;;;5003822;28;58452;-68
2023/10/03 05:56:07;;;;;;;4.28;3.05;;;;;;;;;;5005495;28;59569;-68
2023/10/03 05:58:32;;;;;;;5.00;3.70;;;;;;;;;;5004166;28;58673;-68
2023/10/03 06:00:58;;;;;;;5.13;3.00;;;;;;;;;;5001124;28;58499;-68
2023/10/03 06:03:23;;;;;;;5.63;3.83;;;;;;;;;;5003729;28;58505;-65
2023/10/03 06:05:50;;;;;;;5.37;3.67;;;;;;;;;;5002572;28;58569;-66
2023/10/03 06:08:15;;;;;;;3.47;3.03;;;;;;;;;;5003045;28;59332;-65
2023/10/03 06:10:40;;;;;;;4.25;2.67;;;;;;;;;;5003978;28;58581;-65
2023/10/03 06:13:09;;;;;;;5.03;3.63;;;;;;;;;;5003028;28;58697;-65
2023/10/03 06:15:36;;;;;;;6.78;3.83;;;;;;;;;;5003118;28;60405;-65
2023/10/03 06:18:02;;;;;;;5.53;3.47;;;;;;;;;;5003318;28;58396;-65
2023/10/03 06:20:27;;;;;;;6.18;3.30;;;;;;;;;;5004123;28;59451;-68
2023/10/03 06:22:53;;;;;;;4.40;3.13;;;;;;;;;;5003276;28;58289;-68
2023/10/03 06:25:19;;;;;;;4.68;3.25;;;;;;;;;;5004016;28;58399;-68
2023/10/03 06:27:44;;;;;;;5.88;3.72;;;;;;;;;;5000297;28;59239;-68
2023/10/03 06:30:09;;;;;;;5.57;3.67;;;;;;;;;;4994497;28;58876;-68
2023/10/03 06:32:34;;;;;;;5.50;3.50;;;;;;;;;;5000731;28;58572;-68
2023/10/03 06:35:01;;;;;;;5.47;3.40;;;;;;;;;;5001640;28;59424;-68
2023/10/03 06:37:26;;;;;;;4.65;3.03;;;;;;;;;;5001983;28;58384;-66
2023/10/03 06:39:51;;;;;;;3.97;2.87;;;;;;;;;;5003255;28;59233;-67
2023/10/03 06:42:16;;;;;;;4.40;2.57;;;;;;;;;;5003153;28;58579;-68
2023/10/03 06:44:42;;;;;;;5.50;2.85;;;;;;;;;;5001872;28;58481;-68
2023/10/03 06:47:08;;;;;;;6.88;3.17;;;;;;;;;;5003974;28;60140;-67
2023/10/03 06:49:33;;;;;;;7.32;3.60;;;;;;;;;;5000224;28;59636;-67
2023/10/03 06:52:00;;;;;;;6.43;4.00;;;;;;;;;;5002312;28;58437;-67
2023/10/03 06:54:25;;;;;;;8.15;3.38;;;;;;;;;;5004467;28;59721;-66
2023/10/03 06:56:51;;;;;;;5.63;3.40;;;;;;;;;;4999663;28;59362;-67
2023/10/03 06:59:16;;;;;;;4.57;3.17;;;;;;;;;;5002809;28;58456;-67
2023/10/03 07:01:41;;;;;;;5.38;3.85;;;;;;;;;;4998547;28;58882;-67
2023/10/03 07:04:06;;;;;;;8.95;3.83;;;;;;;;;;5000669;28;58460;-66
2023/10/03 07:06:33;;;;;;;7.65;3.67;;;;;;;;;;5002140;28;59462;-67
2023/10/03 07:08:58;;;;;;;8.00;4.18;;;;;;;;;;5002769;28;58763;-66
2023/10/03 07:11:23;;;;;;;4.97;3.35;;;;;;;;;;5004102;28;58394;-66
2023/10/03 07:13:49;;;;;;;5.47;3.07;;;;;;;;;;5003991;28;59247;-66
2023/10/03 07:16:15;;;;;;;5.32;3.78;;;;;;;;;;5002256;28;60342;-66
2023/10/03 07:18:43;;;;;;;5.47;3.50;;;;;;;;;;4999489;28;58401;-66
2023/10/03 07:21:08;;;;;;;7.22;3.88;;;;;;;;;;5002048;28;60401;-66
2023/10/03 07:23:33;;;;;;;4.97;2.90;;;;;;;;;;5002588;28;58709;-67
2023/10/03 07:25:59;;;;;;;5.87;3.17;;;;;;;;;;5001983;28;58447;-67
2023/10/03 07:28:24;;;;;;;5.80;3.97;;;;;;;;;;5001812;28;58551;-66
2023/10/03 07:30:49;;;;;;;7.60;3.73;;;;;;;;;;5002818;28;58744;-67
2023/10/03 07:33:15;;;;;;;13.43;3.97;;;;;;;;;;5004280;28;59445;-66
2023/10/03 07:35:41;;;;;;;7.30;3.17;;;;;;;;;;4998584;28;58946;-67
2023/10/03 07:38:10;;;;;;;8.85;3.78;;;;;;;;;;4994098;28;58486;-67
2023/10/03 07:40:37;;;;;;;4.75;3.63;;;;;;;;;;4999466;28;59230;-66
2023/10/03 07:43:05;;;;;;;6.20;3.40;;;;;;;;;;5003737;28;59882;-68
2023/10/03 07:45:30;;;;;;;9.17;3.47;;;;;;;;;;5003130;28;60313;-69
2023/10/03 07:47:57;;;;;;;5.95;2.65;;;;;;;;;;5001016;28;59072;-69
2023/10/03 07:50:25;;;;;;;7.82;3.30;;;;;;;;;;4995705;28;59263;-68
2023/10/03 07:52:50;;;;;;;7.25;3.00;;;;;;;;;;4999186;28;59685;-69
2023/10/03 07:55:16;;;;;;;10.73;3.27;;;;;;;;;;5000953;28;58754;-69
2023/10/03 07:57:42;;;;;;;4.93;3.08;;;;;;;;;;4999369;28;58361;-69
2023/10/03 08:00:08;;;;;;;5.68;3.38;;;;;;;;;;5001758;28;59260;-67
2023/10/03 08:02:33;;;;;;;5.57;4.25;;;;;;;;;;5000418;28;58958;-67
2023/10/03 08:05:01;;;;;;;6.32;4.13;;;;;;;;;;5002157;28;58482;-68
2023/10/03 08:07:27;;;;;;;9.73;3.40;;;;;;;;;;5000418;28;58977;-67
2023/10/03 08:09:52;;;;;;;8.30;3.53;;;;;;;;;;5000858;28;58566;-67
2023/10/03 08:12:24;;;;;;;6.57;3.13;;;;;;;;;;5001872;28;60932;-68
2023/10/03 08:14:52;;;;;;;5.53;3.63;;;;;;;;;;5000886;28;60468;-68
2023/10/03 08:17:17;;;;;;;6.07;3.78;;;;;;;;;;4994830;28;58550;-67
2023/10/03 08:19:45;;;;;;;9.82;3.58;;;;;;;;;;4999332;28;59660;-67
2023/10/03 08:22:12;;;;;;;6.25;3.42;;;;;;;;;;5000231;28;59098;-67
2023/10/03 08:24:37;;;;;;;6.33;3.33;;;;;;;;;;5003698;28;58678;-67
2023/10/03 08:27:03;;;;;;;4.80;3.23;;;;;;;;;;5001494;28;59877;-67
2023/10/03 08:29:29;;;;;;;6.82;3.33;;;;;;;;;;5000561;28;58921;-69
2023/10/03 08:31:58;;;;;;;3.58;2.35;;;;;;;;;;4999614;28;59665;-67
2023/10/03 08:34:24;;;;;;;17.17;4.10;;;;;;;;;;5000845;28;59077;-66
2023/10/03 08:36:53;;;;;;;10.38;4.30;;;;;;;;;;4997085;28;58743;-69
2023/10/03 08:39:19;;;;;;;6.75;3.33;;;;;;;;;;4996729;28;60208;-67
2023/10/03 08:41:53;;;;;;;6.43;2.92;;;;;;;;;;4997049;28;59926;-69
2023/10/03 08:44:20;;;;;;;4.63;3.13;;;;;;;;;;5002896;28;58540;-69
2023/10/03 08:46:48;;;;;;;4.60;2.97;;;;;;;;;;5004849;28;61048;-68
2023/10/03 08:49:17;;;;;;;5.70;3.03;;;;;;;;;;5002877;28;58398;-69
2023/10/03 08:51:43;;;;;;;6.40;2.95;;;;;;;;;;5005430;28;59516;-68
2023/10/03 08:54:09;;;;;;;8.48;2.20;;;;;;;;;;5004057;28;59136;-69
2023/10/03 08:56:35;;;;;;;4.45;2.63;;;;;;;;;;5003523;28;58576;-67
2023/10/03 08:59:02;;;;;;;3.40;2.80;;;;;;;;;;5002246;28;59652;-69
2023/10/03 09:01:33;;;;;;;8.02;3.63;;;;;;;;;;5003647;28;58932;-69
2023/10/03 09:04:04;;;;;;;4.28;2.65;;;;;;;;;;5004652;28;58381;-69
2023/10/03 09:06:29;;;;;;;7.90;3.33;;;;;;;;;;5006005;28;60921;-70
2023/10/03 09:09:11;;;;;;;4.93;3.40;;;;;;;;;;5002792;28;59585;-66
2023/10/03 09:11:37;;;;;;;7.25;2.33;;;;;;;;;;5001322;28;61535;-70
2023/10/03 09:14:03;;;;;;;7.57;3.95;;;;;;;;;;5003117;28;59084;-69
2023/10/03 09:16:28;;;;;;;6.20;2.67;;;;;;;;;;5005123;28;58879;-68
2023/10/03 09:18:56;;;;;;;8.07;3.53;;;;;;;;;;5004660;28;59393;-69
2023/10/03 09:21:27;;;;;;;12.83;3.30;;;;;;;;;;5005601;28;59279;-68
2023/10/03 09:24:01;;;;;;;5.22;3.00;;;;;;;;;;5003212;28;59502;-69
2023/10/03 09:26:27;;;;;;;9.07;3.88;;;;;;;;;;5002976;28;59532;-68
2023/10/03 09:28:52;;;;;;;8.20;2.65;;;;;;;;;;5002585;28;58801;-68
2023/10/03 09:31:20;;;;;;;10.73;3.87;;;;;;;;;;5004783;28;58691;-70
2023/10/03 09:33:47;;;;;;;11.38;3.42;;;;;;;;;;5004944;28;59783;-68
2023/10/03 09:36:12;;;;;;;12.30;4.07;;;;;;;;;;5001835;28;59059;-70
2023/10/03 09:38:46;;;;;;;7.50;3.45;;;;;;;;;;5003350;28;60457;-70
2023/10/03 09:41:17;;;;;;;9.75;3.03;;;;;;;;;;5002472;28;59824;-70
2023/10/03 09:43:45;;;;;;;9.25;3.22;;;;;;;;;;5002813;28;58401;-72
2023/10/03 09:46:11;;;;;;;7.50;2.88;;;;;;;;;;5001147;28;60085;-75
2023/10/03 09:48:37;;;;;;;4.90;2.67;;;;;;;;;;5003262;28;59176;-75
2023/10/03 09:51:05;;;;;;;10.07;3.65;;;;;;;;;;5004102;28;58361;-74
2023/10/03 09:53:31;;;;;;;6.13;3.60;;;;;;;;;;5004609;28;58603;-71
2023/10/03 09:55:57;;;;;;;8.18;3.35;;;;;;;;;;5003117;28;58480;-72
2023/10/03 09:58:31;;;;;;;4.90;3.30;;;;;;;;;;5003006;28;60534;-71
2023/10/03 10:00:57;;;;;;;11.13;3.38;;;;;;;;;;5002528;28;60167;-74
2023/10/03 10:03:26;;;;;;;6.30;3.13;;;;;;;;;;5005924;28;58428;-69
2023/10/03 10:05:59;;;;;;;11.65;3.58;;;;;;;;;;5001622;28;60533;-71
2023/10/03 10:08:36;;;;;;;15.65;3.42;;;;;;;;;;5002656;28;58609;-71
2023/10/03 10:11:07;;;;;;;5.43;2.58;;;;;;;;;;5004466;28;58378;-71
2023/10/03 10:13:36;;;;;;;7.05;3.08;;;;;;;;;;5002917;28;59552;-71
2023/10/03 10:16:11;;;;;;;5.70;2.53;;;;;;;;;;4999826;28;58464;-69
2023/10/03 10:18:43;;;;;;;6.18;2.85;;;;;;;;;;5002923;28;59633;-75
2023/10/03 10:21:25;;;;;;;8.43;2.88;;;;;;;;;;5004181;28;59988;-71
2023/10/03 10:24:09;;;;;;;3.75;2.33;;;;;;;;;;5003430;28;58464;-70
2023/10/03 10:26:35;;;;;;;4.80;2.50;;;;;;;;;;5000231;28;59861;-73
2023/10/03 10:29:14;;;;;;;14.93;3.60;;;;;;;;;;4993636;28;59779;-70
2023/10/03 10:31:44;;;;;;;10.30;2.75;;;;;;;;;;4997592;28;58358;-71
2023/10/03 10:34:21;;;;;;;8.05;2.50;;;;;;;;;;5002286;28;59877;-71
2023/10/03 10:36:56;;;;;;;6.10;2.07;;;;;;;;;;5001324;28;58992;-70
2023/10/03 10:39:24;;;;;;;8.43;2.88;;;;;;;;;;5002689;28;60348;-71
2023/10/03 10:42:09;;;;;;;5.43;3.00;;;;;;;;;;5002309;28;58911;-70
2023/10/03 10:44:34;;;;;;;7.13;2.58;;;;;;;;;;5003134;28;58816;-71
2023/10/03 10:47:06;;;;;;;6.20;2.93;;;;;;;;;;5002078;28;58477;-74
2023/10/03 10:49:31;;;;;;;7.47;2.92;;;;;;;;;;5001285;28;59128;-71
2023/10/03 10:52:01;;;;;;;6.88;1.60;;;;;;;;;;5003266;28;58282;-71
2023/10/03 10:54:26;;;;;;;4.72;1.95;;;;;;;;;;5004269;28;59346;-72
2023/10/03 10:57:01;;;;;;;4.63;1.83;;;;;;;;;;5003412;28;58570;-69
2023/10/03 10:59:26;;;;;;;2.30;1.60;;;;;;;;;;5004561;28;58765;-70
2023/10/03 11:01:52;;;;;;;8.57;1.83;;;;;;;;;;5001247;28;59227;-70
2023/10/03 11:04:24;;;;;;;3.72;1.88;;;;;;;;;;5003197;28;58401;-70
2023/10/03 11:06:52;;;;;;;3.60;1.60;;;;;;;;;;5003167;28;60101;-70
2023/10/03 11:09:20;;;;;;;4.38;1.48;;;;;;;;;;5002160;28;59113;-70
2023/10/03 11:11:45;;;;;;;9.20;1.88;;;;;;;;;;5003287;28;58322;-70
2023/10/03 11:14:10;;;;;;;3.30;1.75;;;;;;;;;;5004786;28;58564;-69
2023/10/03 11:16:36;;;;;;;4.43;1.90;;;;;;;;;;5000532;28;59705;-70
2023/10/03 11:19:02;;;;;;;3.37;1.60;;;;;;;;;;5004639;28;58459;-67
2023/10/03 11:21:30;;;;;;;3.90;1.48;;;;;;;;;;5004342;28;59354;-66
2023/10/03 11:24:33;;;;;;;9.23;2.00;;;;;;;;;;5003469;28;58442;-65
2023/10/03 11:26:58;;;;;;;2.78;1.40;;;;;;;;;;5000429;28;63509;-66
2023/10/03 11:29:36;;;;;;;1.53;1.27;;;;;;;;;;5002736;28;58385;-65
2023/10/03 11:32:01;;;;;;;;;;;;;;;;;;5001113;28;58509;-68
2023/10/03 11:34:31;;;;;;;3.93;1.73;;;;;;;;;;5002189;28;58468;-70
2023/10/03 11:36:56;;;;;;;3.92;1.42;;;;;;;;;;5001425;28;59466;-70
2023/10/03 11:39:23;;;;;;;2.53;1.30;;;;;;;;;;5002753;28;58346;-68
2023/10/03 11:41:48;;;;;;;5.20;1.05;;;;;;;;;;5003141;28;59357;-68
2023/10/03 11:44:20;;;;;;;5.67;1.30;;;;;;;;;;5001501;28;59089;-68
2023/10/03 11:46:46;;;;;;;3.40;1.35;;;;;;;;;;5001193;28;60423;-68
2023/10/03 11:49:12;;;;;;;4.80;1.73;;;;;;;;;;5003024;28;60151;-69
2023/10/03 11:51:38;;;;;;;12.55;1.52;;;;;;;;;;5001618;28;58438;-69
2023/10/03 11:54:08;;;;;;;4.53;1.63;;;;;;;;;;4998561;28;60347;-68
2023/10/03 11:56:37;;;;;;;5.13;1.65;;;;;;;;;;4998751;28;58588;-68
2023/10/03 11:59:03;;;;;;;2.17;0.88;;;;;;;;;;4999777;28;58586;-69
2023/10/03 12:01:29;;;;;;;1.53;0.90;;;;;;;;;;5003116;28;59579;-69
2023/10/03 12:03:54;;;;;;;1.70;1.20;;;;;;;;;;4999933;28;59067;-69
2023/10/03 12:06:19;;;;;;;1.17;0.75;;;;;;;;;;4998599;28;58575;-69
2023/10/03 12:08:44;;;;;;;2.03;0.80;;;;;;;;;;4998309;28;58502;-69
2023/10/03 12:11:12;;;;;;;3.13;1.53;;;;;;;;;;5000776;28;58559;-69
2023/10/03 12:13:37;;;;;;;3.60;1.08;;;;;;;;;;4999651;28;60341;-68
2023/10/03 12:16:04;;;;;;;7.67;1.53;;;;;;;;;;4999993;28;58710;-69
2023/10/03 12:18:29;;;;;;;4.00;1.20;;;;;;;;;;5000478;28;58676;-68
2023/10/03 12:20:55;;;;;;;7.83;1.80;;;;;;;;;;5000427;28;59458;-69
2023/10/03 12:23:20;;;;;;;4.73;1.23;;;;;;;;;;5001003;28;60312;-69
2023/10/03 12:25:45;;;;;;;7.78;1.50;;;;;;;;;;4998992;28;58829;-69
2023/10/03 12:28:11;;;;;;;4.68;1.10;;;;;;;;;;4998937;28;59073;-69
2023/10/03 12:30:36;;;;;;;2.57;1.10;;;;;;;;;;4993313;28;58465;-70
2023/10/03 12:33:01;;;;;;;16.27;0.77;;;;;;;;;;4997014;28;59472;-70
2023/10/03 12:35:26;;;;;;;6.00;0.93;;;;;;;;;;5000564;28;59782;-69
2023/10/03 12:37:51;;;;;;;7.50;1.23;;;;;;;;;;4994744;28;58341;-69
2023/10/03 12:40:18;;;;;;;3.75;1.25;;;;;;;;;;5001707;28;59529;-69
2023/10/03 12:42:46;;;;;;;4.45;1.15;;;;;;;;;;5001153;28;59042;-69
2023/10/03 12:45:14;;;;;;;2.65;1.35;;;;;;;;;;5000540;28;58369;-69
2023/10/03 12:47:39;;;;;;;3.95;1.08;;;;;;;;;;5001855;28;59311;-69
2023/10/03 12:50:05;;;;;;;2.28;0.77;;;;;;;;;;5002552;28;58517;-69
2023/10/03 12:52:30;;;;;;;3.15;1.10;;;;;;;;;;5002616;28;59558;-69
2023/10/03 12:54:56;;;;;;;4.20;1.30;;;;;;;;;;4998079;28;60199;-70
2023/10/03 12:57:22;;;;;;;2.63;1.20;;;;;;;;;;5000950;28;58447;-69
2023/10/03 12:59:49;;;;;;;3.08;1.38;;;;;;;;;;5001753;28;58483;-69
2023/10/03 13:02:17;;;;;;;6.35;1.00;;;;;;;;;;4999114;28;60265;-70
2023/10/03 13:04:42;;;;;;;7.05;1.02;;;;;;;;;;5000418;28;58374;-68
2023/10/03 13:07:09;;;;;;;3.03;1.00;;;;;;;;;;4998760;28;59295;-69
2023/10/03 13:09:35;;;;;;;1.65;0.63;;;;;;;;;;4998933;28;59669;-68
2023/10/03 13:12:00;;;;;;;1.77;0.70;;;;;;;;;;5001915;28;59369;-70
2023/10/03 13:14:25;;;;;;;2.00;0.73;;;;;;;;;;5000102;28;58741;-69
2023/10/03 13:16:51;;;;;;;0.93;0.50;;;;;;;;;;4999008;28;58596;-70
2023/10/03 13:19:16;;;;;;;1.80;0.52;;;;;;;;;;4997555;28;59721;-67
2023/10/03 13:21:42;;;;;;;3.58;0.75;;;;;;;;;;4998363;28;58765;-68
2023/10/03 13:24:07;;;;;;;2.08;0.98;;;;;;;;;;4999866;28;58471;-67
2023/10/03 13:26:34;;;;;;;1.52;0.65;;;;;;;;;;5002645;28;59277;-67
2023/10/03 13:28:59;;;;;;;3.58;1.33;;;;;;;;;;4998678;28;58454;-66
2023/10/03 13:31:25;;;;;;;4.10;0.83;;;;;;;;;;5001522;28;58511;-67
2023/10/03 13:33:50;;;;;;;6.57;2.05;;;;;;;;;;5002081;28;59197;-67
2023/10/03 13:36:17;;;;;;;3.50;0.93;;;;;;;;;;5003828;28;58823;-66
2023/10/03 13:38:42;;;;;;;5.80;0.85;;;;;;;;;;5000196;28;58980;-67
2023/10/03 13:41:08;;;;;;;5.45;1.40;;;;;;;;;;5002195;28;58548;-67
2023/10/03 13:43:33;;;;;;;1.87;1.40;;;;;;;;;;5005175;28;58457;-64
2023/10/03 13:45:58;;;;;;;2.03;0.70;;;;;;;;;;5005299;28;59119;-64
2023/10/03 13:48:24;;;;;;;4.22;1.40;;;;;;;;;;5002721;28;58574;-64
2023/10/03 13:50:50;;;;;;;4.95;1.90;;;;;;;;;;4998942;28;58604;-64
2023/10/03 13:53:20;;;;;;;2.38;1.00;;;;;;;;;;5002509;28;60345;-64
2023/10/03 13:55:45;;;;;;;8.20;1.38;;;;;;;;;;5001036;28;58456;-64
2023/10/03 13:58:11;;;;;;;1.10;1.00;;;;;;;;;;5001073;28;59281;-64
2023/10/03 14:00:39;;;;;;;3.15;1.55;;;;;;;;;;5000556;28;59223;-64
2023/10/03 14:03:07;;;;;;;1.45;1.30;;;;;;;;;;5001254;28;58461;-65
2023/10/03 14:05:34;;;;;;;1.52;0.88;;;;;;;;;;5003303;28;59756;-63
2023/10/03 14:08:00;;;;;;;3.47;1.27;;;;;;;;;;4999340;28;58845;-65
2023/10/03 14:10:25;;;;;;;5.10;0.82;;;;;;;;;;5001294;28;58334;-64
2023/10/03 14:12:50;;;;;;;0.47;0.40;;;;;;;;;;5002442;28;58901;-63
2023/10/03 14:15:20;;;;;;;3.08;0.80;;;;;;;;;;5004405;28;58568;-64
2023/10/03 14:17:45;;;;;;;5.28;1.25;;;;;;;;;;5002501;28;58906;-63
2023/10/03 14:20:10;;;;;;;2.07;1.00;;;;;;;;;;5000251;28;59595;-63
2023/10/03 14:22:36;;;;;;;2.07;1.60;;;;;;;;;;5000927;28;58580;-64
2023/10/03 14:25:01;;;;;;;1.52;1.20;;;;;;;;;;5001397;28;60425;-64
2023/10/03 14:27:26;;;;;;;3.15;1.00;;;;;;;;;;5000668;28;59800;-63
2023/10/03 14:29:52;;;;;;;4.27;1.27;;;;;;;;;;5000893;28;58509;-64
2023/10/03 14:32:19;;;;;;;1.70;1.17;;;;;;;;;;5001699;28;58589;-63
2023/10/03 14:34:45;;;;;;;4.43;2.08;;;;;;;;;;5000415;28;58594;-63
2023/10/03 14:37:10;;;;;;;4.13;1.33;;;;;;;;;;5000121;28;59442;-64
2023/10/03 14:39:35;;;;;;;14.10;2.30;;;;;;;;;;5000708;28;59089;-65
2023/10/03 14:42:00;;;;;;;2.97;1.37;;;;;;;;;;5004107;28;58417;-64